sensor_id;sensor_type;location;lat;lon;timestamp;P1;durP1;ratioP1;P2;durP2;ratioP2
16099;SDS011;8154;50.830;12.082;2022-10-04T00:01:21;0.40;;;0.40;;
16099;SDS011;8154;50.830;12.082;2022-10-04T00:04:08;0.50;;;0.50;;
16099;SDS011;8154;50.830;12.082;2022-10-04T00:09:58;0.50;;;0.50;;
16099;SDS011;8154;50.830;12.082;2022-10-04T00:15:41;0.43;;;0.43;;
16099;SDS011;8154;50.830;12.082;2022-10-04T00:21:19;0.40;;;0.40;;
16099;SDS011;8154;50.830;12.082;2022-10-04T00:24:18;0.40;;;0.40;;
16099;SDS011;8154;50.830;12.082;2022-10-04T00:27:24;0.43;;;0.43;;
16099;SDS011;8154;50.830;12.082;2022-10-04T00:30:15;0.30;;;0.30;;
16099;SDS011;8154;50.830;12.082;2022-10-04T00:33:06;0.40;;;0.40;;
16099;SDS011;8154;50.830;12.082;2022-10-04T00:35:50;0.40;;;0.40;;
16099;SDS011;8154;50.830;12.082;2022-10-04T00:38:35;0.50;;;0.50;;
16099;SDS011;8154;50.830;12.082;2022-10-04T00:41:19;0.50;;;0.50;;
16099;SDS011;8154;50.830;12.082;2022-10-04T00:44:04;0.30;;;0.30;;
16099;SDS011;8154;50.830;12.082;2022-10-04T00:46:57;0.40;;;0.40;;
16099;SDS011;8154;50.830;12.082;2022-10-04T00:49:44;0.30;;;0.30;;
16099;SDS011;8154;50.830;12.082;2022-10-04T00:52:31;0.40;;;0.40;;
16099;SDS011;8154;50.830;12.082;2022-10-04T00:55:24;0.32;;;0.32;;
16099;SDS011;8154;50.830;12.082;2022-10-04T00:58:25;0.30;;;0.30;;
16099;SDS011;8154;50.830;12.082;2022-10-04T01:01:17;0.40;;;0.40;;
16099;SDS011;8154;50.830;12.082;2022-10-04T01:04:20;0.50;;;0.50;;
16099;SDS011;8154;50.830;12.082;2022-10-04T01:07:46;0.40;;;0.40;;
16099;SDS011;8154;50.830;12.082;2022-10-04T01:13:27;0.45;;;0.45;;
16099;SDS011;8154;50.830;12.082;2022-10-04T01:16:48;0.40;;;0.40;;
16099;SDS011;8154;50.830;12.082;2022-10-04T01:19:34;0.28;;;0.28;;
16099;SDS011;8154;50.830;12.082;2022-10-04T01:22:30;0.38;;;0.38;;
16099;SDS011;8154;50.830;12.082;2022-10-04T01:28:26;0.30;;;0.30;;
16099;SDS011;8154;50.830;12.082;2022-10-04T01:31:10;0.38;;;0.38;;
16099;SDS011;8154;50.830;12.082;2022-10-04T01:33:54;0.40;;;0.40;;
16099;SDS011;8154;50.830;12.082;2022-10-04T01:36:39;0.50;;;0.50;;
16099;SDS011;8154;50.830;12.082;2022-10-04T01:39:25;0.30;;;0.30;;
16099;SDS011;8154;50.830;12.082;2022-10-04T01:42:13;0.30;;;0.30;;
16099;SDS011;8154;50.830;12.082;2022-10-04T01:45:06;0.40;;;0.40;;
16099;SDS011;8154;50.830;12.082;2022-10-04T01:48:00;0.40;;;0.40;;
16099;SDS011;8154;50.830;12.082;2022-10-04T01:50:51;0.57;;;0.57;;
16099;SDS011;8154;50.830;12.082;2022-10-04T01:53:55;0.40;;;0.40;;
16099;SDS011;8154;50.830;12.082;2022-10-04T01:56:43;0.50;;;0.50;;
16099;SDS011;8154;50.830;12.082;2022-10-04T01:59:41;0.35;;;0.35;;
16099;SDS011;8154;50.830;12.082;2022-10-04T02:05:35;0.40;;;0.40;;
16099;SDS011;8154;50.830;12.082;2022-10-04T02:08:28;0.40;;;0.40;;
16099;SDS011;8154;50.830;12.082;2022-10-04T02:11:16;0.45;;;0.45;;
16099;SDS011;8154;50.830;12.082;2022-10-04T02:14:03;0.30;;;0.30;;
16099;SDS011;8154;50.830;12.082;2022-10-04T02:16:49;0.30;;;0.30;;
16099;SDS011;8154;50.830;12.082;2022-10-04T02:19:40;0.40;;;0.40;;
16099;SDS011;8154;50.830;12.082;2022-10-04T02:22:25;0.57;;;0.57;;
16099;SDS011;8154;50.830;12.082;2022-10-04T02:25:10;0.45;;;0.45;;
16099;SDS011;8154;50.830;12.082;2022-10-04T02:27:57;0.40;;;0.40;;
16099;SDS011;8154;50.830;12.082;2022-10-04T02:30:43;0.43;;;0.43;;
16099;SDS011;8154;50.830;12.082;2022-10-04T02:33:51;0.43;;;0.43;;
16099;SDS011;8154;50.830;12.082;2022-10-04T02:36:40;0.45;;;0.45;;
16099;SDS011;8154;50.830;12.082;2022-10-04T02:39:31;0.50;;;0.50;;
16099;SDS011;8154;50.830;12.082;2022-10-04T02:42:27;0.40;;;0.40;;
16099;SDS011;8154;50.830;12.082;2022-10-04T02:45:32;0.40;;;0.40;;
16099;SDS011;8154;50.830;12.082;2022-10-04T02:51:45;0.32;;;0.32;;
16099;SDS011;8154;50.830;12.082;2022-10-04T02:57:40;0.40;;;0.40;;
16099;SDS011;8154;50.830;12.082;2022-10-04T03:00:30;0.45;;;0.45;;
16099;SDS011;8154;50.830;12.082;2022-10-04T03:06:21;0.40;;;0.40;;
16099;SDS011;8154;50.830;12.082;2022-10-04T03:09:10;0.40;;;0.40;;
16099;SDS011;8154;50.830;12.082;2022-10-04T03:11:56;0.43;;;0.43;;
16099;SDS011;8154;50.830;12.082;2022-10-04T03:14:42;0.40;;;0.40;;
16099;SDS011;8154;50.830;12.082;2022-10-04T03:17:27;0.47;;;0.40;;
16099;SDS011;8154;50.830;12.082;2022-10-04T03:20:13;0.40;;;0.40;;
16099;SDS011;8154;50.830;12.082;2022-10-04T03:23:04;0.40;;;0.40;;
16099;SDS011;8154;50.830;12.082;2022-10-04T03:26:00;0.30;;;0.30;;
16099;SDS011;8154;50.830;12.082;2022-10-04T03:28:45;0.40;;;0.40;;
16099;SDS011;8154;50.830;12.082;2022-10-04T03:31:30;0.40;;;0.40;;
16099;SDS011;8154;50.830;12.082;2022-10-04T03:34:22;0.50;;;0.50;;
16099;SDS011;8154;50.830;12.082;2022-10-04T03:37:11;0.40;;;0.40;;
16099;SDS011;8154;50.830;12.082;2022-10-04T03:39:59;0.32;;;0.32;;
16099;SDS011;8154;50.830;12.082;2022-10-04T03:42:44;0.40;;;0.40;;
16099;SDS011;8154;50.830;12.082;2022-10-04T03:45:30;0.40;;;0.40;;
16099;SDS011;8154;50.830;12.082;2022-10-04T03:48:21;0.40;;;0.40;;
16099;SDS011;8154;50.830;12.082;2022-10-04T03:51:15;0.40;;;0.38;;
16099;SDS011;8154;50.830;12.082;2022-10-04T03:54:02;0.50;;;0.50;;
16099;SDS011;8154;50.830;12.082;2022-10-04T03:56:50;0.50;;;0.50;;
16099;SDS011;8154;50.830;12.082;2022-10-04T03:59:37;0.40;;;0.40;;
16099;SDS011;8154;50.830;12.082;2022-10-04T04:02:33;0.30;;;0.30;;
16099;SDS011;8154;50.830;12.082;2022-10-04T04:05:28;0.40;;;0.40;;
16099;SDS011;8154;50.830;12.082;2022-10-04T04:11:14;0.50;;;0.50;;
16099;SDS011;8154;50.830;12.082;2022-10-04T04:14:11;0.50;;;0.50;;
16099;SDS011;8154;50.830;12.082;2022-10-04T04:17:28;0.30;;;0.30;;
16099;SDS011;8154;50.830;12.082;2022-10-04T04:20:21;0.47;;;0.47;;
16099;SDS011;8154;50.830;12.082;2022-10-04T04:26:09;0.40;;;0.40;;
16099;SDS011;8154;50.830;12.082;2022-10-04T04:32:15;0.30;;;0.30;;
16099;SDS011;8154;50.830;12.082;2022-10-04T04:35:19;0.50;;;0.50;;
16099;SDS011;8154;50.830;12.082;2022-10-04T04:38:26;0.55;;;0.55;;
16099;SDS011;8154;50.830;12.082;2022-10-04T04:41:10;0.60;;;0.60;;
16099;SDS011;8154;50.830;12.082;2022-10-04T04:43:54;0.60;;;0.60;;
16099;SDS011;8154;50.830;12.082;2022-10-04T04:46:39;0.65;;;0.65;;
16099;SDS011;8154;50.830;12.082;2022-10-04T04:49:28;0.60;;;0.60;;
16099;SDS011;8154;50.830;12.082;2022-10-04T04:52:14;0.60;;;0.60;;
16099;SDS011;8154;50.830;12.082;2022-10-04T04:55:03;0.90;;;0.90;;
16099;SDS011;8154;50.830;12.082;2022-10-04T04:57:49;0.70;;;0.70;;
16099;SDS011;8154;50.830;12.082;2022-10-04T05:00:39;0.75;;;0.75;;
16099;SDS011;8154;50.830;12.082;2022-10-04T05:03:24;0.80;;;0.80;;
16099;SDS011;8154;50.830;12.082;2022-10-04T05:06:25;0.80;;;0.80;;
16099;SDS011;8154;50.830;12.082;2022-10-04T05:12:24;0.80;;;0.80;;
16099;SDS011;8154;50.830;12.082;2022-10-04T05:15:08;0.85;;;0.85;;
16099;SDS011;8154;50.830;12.082;2022-10-04T05:17:53;0.70;;;0.70;;
16099;SDS011;8154;50.830;12.082;2022-10-04T05:20:37;0.82;;;0.82;;
16099;SDS011;8154;50.830;12.082;2022-10-04T05:23:21;0.80;;;0.80;;
16099;SDS011;8154;50.830;12.082;2022-10-04T05:26:09;0.80;;;0.80;;
16099;SDS011;8154;50.830;12.082;2022-10-04T05:28:58;0.80;;;0.80;;
16099;SDS011;8154;50.830;12.082;2022-10-04T05:32:01;0.80;;;0.80;;
16099;SDS011;8154;50.830;12.082;2022-10-04T05:34:47;0.80;;;0.80;;
16099;SDS011;8154;50.830;12.082;2022-10-04T05:37:42;0.85;;;0.85;;
16099;SDS011;8154;50.830;12.082;2022-10-04T05:41:13;0.88;;;0.88;;
16099;SDS011;8154;50.830;12.082;2022-10-04T05:44:18;0.90;;;0.90;;
16099;SDS011;8154;50.830;12.082;2022-10-04T05:47:05;0.80;;;0.80;;
16099;SDS011;8154;50.830;12.082;2022-10-04T05:49:52;0.90;;;0.90;;
16099;SDS011;8154;50.830;12.082;2022-10-04T05:52:40;0.90;;;0.90;;
16099;SDS011;8154;50.830;12.082;2022-10-04T05:55:27;0.82;;;0.82;;
16099;SDS011;8154;50.830;12.082;2022-10-04T06:04:36;0.90;;;0.90;;
16099;SDS011;8154;50.830;12.082;2022-10-04T06:07:48;0.90;;;0.90;;
16099;SDS011;8154;50.830;12.082;2022-10-04T06:14:18;0.90;;;0.90;;
16099;SDS011;8154;50.830;12.082;2022-10-04T06:23:15;0.80;;;0.80;;
16099;SDS011;8154;50.830;12.082;2022-10-04T06:26:03;0.90;;;0.90;;
16099;SDS011;8154;50.830;12.082;2022-10-04T06:28:56;0.88;;;0.88;;
16099;SDS011;8154;50.830;12.082;2022-10-04T06:31:51;0.90;;;0.90;;
16099;SDS011;8154;50.830;12.082;2022-10-04T06:34:43;0.80;;;0.80;;
16099;SDS011;8154;50.830;12.082;2022-10-04T06:38:24;0.85;;;0.85;;
16099;SDS011;8154;50.830;12.082;2022-10-04T06:47:11;0.80;;;0.80;;
16099;SDS011;8154;50.830;12.082;2022-10-04T06:56:33;0.90;;;0.90;;
16099;SDS011;8154;50.830;12.082;2022-10-04T07:05:33;0.80;;;0.80;;
16099;SDS011;8154;50.830;12.082;2022-10-04T07:08:24;1.00;;;1.00;;
16099;SDS011;8154;50.830;12.082;2022-10-04T07:14:14;0.70;;;0.70;;
16099;SDS011;8154;50.830;12.082;2022-10-04T07:17:16;0.90;;;0.90;;
16099;SDS011;8154;50.830;12.082;2022-10-04T07:20:28;0.80;;;0.80;;
16099;SDS011;8154;50.830;12.082;2022-10-04T07:23:21;0.90;;;0.90;;
16099;SDS011;8154;50.830;12.082;2022-10-04T07:26:22;1.00;;;1.00;;
16099;SDS011;8154;50.830;12.082;2022-10-04T07:29:27;1.08;;;1.08;;
16099;SDS011;8154;50.830;12.082;2022-10-04T07:32:24;0.80;;;0.80;;
16099;SDS011;8154;50.830;12.082;2022-10-04T07:35:15;0.90;;;0.90;;
16099;SDS011;8154;50.830;12.082;2022-10-04T07:38:21;0.80;;;0.80;;
16099;SDS011;8154;50.830;12.082;2022-10-04T07:41:11;0.88;;;0.88;;
16099;SDS011;8154;50.830;12.082;2022-10-04T07:44:12;0.90;;;0.90;;
16099;SDS011;8154;50.830;12.082;2022-10-04T07:50:40;0.80;;;0.80;;
16099;SDS011;8154;50.830;12.082;2022-10-04T07:53:39;1.20;;;1.05;;
16099;SDS011;8154;50.830;12.082;2022-10-04T07:56:31;0.85;;;0.85;;
16099;SDS011;8154;50.830;12.082;2022-10-04T07:59:38;0.80;;;0.80;;
16099;SDS011;8154;50.830;12.082;2022-10-04T08:08:35;0.80;;;0.80;;
16099;SDS011;8154;50.830;12.082;2022-10-04T08:12:06;0.80;;;0.80;;
16099;SDS011;8154;50.830;12.082;2022-10-04T08:18:29;0.90;;;0.90;;
16099;SDS011;8154;50.830;12.082;2022-10-04T08:21:31;0.80;;;0.80;;
16099;SDS011;8154;50.830;12.082;2022-10-04T08:24:32;0.82;;;0.80;;
16099;SDS011;8154;50.830;12.082;2022-10-04T08:34:11;0.90;;;0.90;;
16099;SDS011;8154;50.830;12.082;2022-10-04T08:52:45;0.90;;;0.90;;
16099;SDS011;8154;50.830;12.082;2022-10-04T08:59:08;0.85;;;0.85;;
16099;SDS011;8154;50.830;12.082;2022-10-04T09:02:15;0.80;;;0.80;;
16099;SDS011;8154;50.830;12.082;2022-10-04T09:11:03;0.82;;;0.82;;
16099;SDS011;8154;50.830;12.082;2022-10-04T09:17:17;0.80;;;0.80;;
16099;SDS011;8154;50.830;12.082;2022-10-04T09:20:22;0.82;;;0.82;;
16099;SDS011;8154;50.830;12.082;2022-10-04T09:23:20;1.02;;;1.00;;
16099;SDS011;8154;50.830;12.082;2022-10-04T09:32:49;0.98;;;0.98;;
16099;SDS011;8154;50.830;12.082;2022-10-04T09:36:14;1.00;;;0.90;;
16099;SDS011;8154;50.830;12.082;2022-10-04T10:15:49;1.20;;;1.10;;
16099;SDS011;8154;50.830;12.082;2022-10-04T10:18:26;1.27;;;1.20;;
16099;SDS011;8154;50.830;12.082;2022-10-04T10:24:45;1.40;;;1.30;;
16099;SDS011;8154;50.830;12.082;2022-10-04T10:37:18;1.33;;;1.23;;
16099;SDS011;8154;50.830;12.082;2022-10-04T10:40:31;1.30;;;1.20;;
16099;SDS011;8154;50.830;12.082;2022-10-04T10:47:12;1.38;;;1.27;;
16099;SDS011;8154;50.830;12.082;2022-10-04T10:50:05;1.40;;;1.30;;
16099;SDS011;8154;50.830;12.082;2022-10-04T10:53:11;1.30;;;1.20;;
16099;SDS011;8154;50.830;12.082;2022-10-04T10:56:28;1.17;;;1.13;;
16099;SDS011;8154;50.830;12.082;2022-10-04T11:24:58;1.50;;;1.40;;
16099;SDS011;8154;50.830;12.082;2022-10-04T11:46:46;1.40;;;1.30;;
16099;SDS011;8154;50.830;12.082;2022-10-04T11:55:51;1.38;;;1.27;;
16099;SDS011;8154;50.830;12.082;2022-10-04T11:59:06;1.45;;;1.35;;
16099;SDS011;8154;50.830;12.082;2022-10-04T12:02:05;1.42;;;1.33;;
16099;SDS011;8154;50.830;12.082;2022-10-04T12:11:10;1.40;;;1.30;;
16099;SDS011;8154;50.830;12.082;2022-10-04T12:31:03;1.30;;;1.20;;
16099;SDS011;8154;50.830;12.082;2022-10-04T12:36:51;1.27;;;1.20;;
16099;SDS011;8154;50.830;12.082;2022-10-04T12:42:51;1.40;;;1.30;;
16099;SDS011;8154;50.830;12.082;2022-10-04T12:52:10;1.20;;;1.10;;
16099;SDS011;8154;50.830;12.082;2022-10-04T12:55:03;1.00;;;1.00;;
16099;SDS011;8154;50.830;12.082;2022-10-04T13:01:30;1.40;;;1.30;;
16099;SDS011;8154;50.830;12.082;2022-10-04T13:07:33;1.30;;;1.20;;
16099;SDS011;8154;50.830;12.082;2022-10-04T13:35:11;1.40;;;1.30;;
16099;SDS011;8154;50.830;12.082;2022-10-04T13:47:45;1.40;;;1.30;;
16099;SDS011;8154;50.830;12.082;2022-10-04T13:56:57;1.10;;;1.10;;
16099;SDS011;8154;50.830;12.082;2022-10-04T14:03:13;1.10;;;1.10;;
16099;SDS011;8154;50.830;12.082;2022-10-04T14:12:29;1.20;;;1.10;;
16099;SDS011;8154;50.830;12.082;2022-10-04T14:15:59;1.40;;;1.30;;
16099;SDS011;8154;50.830;12.082;2022-10-04T14:22:09;1.10;;;1.10;;
16099;SDS011;8154;50.830;12.082;2022-10-04T14:31:31;1.13;;;1.13;;
16099;SDS011;8154;50.830;12.082;2022-10-04T14:47:30;1.27;;;1.17;;
16099;SDS011;8154;50.830;12.082;2022-10-04T14:50:26;1.20;;;1.20;;
16099;SDS011;8154;50.830;12.082;2022-10-04T14:53:22;1.13;;;1.13;;
16099;SDS011;8154;50.830;12.082;2022-10-04T15:05:18;1.10;;;1.10;;
16099;SDS011;8154;50.830;12.082;2022-10-04T15:11:08;1.20;;;1.20;;
16099;SDS011;8154;50.830;12.082;2022-10-04T15:13:59;1.10;;;1.10;;
16099;SDS011;8154;50.830;12.082;2022-10-04T15:16:54;1.10;;;1.10;;
16099;SDS011;8154;50.830;12.082;2022-10-04T15:32:57;1.30;;;1.20;;
16099;SDS011;8154;50.830;12.082;2022-10-04T15:38:48;1.50;;;1.40;;
16099;SDS011;8154;50.830;12.082;2022-10-04T15:50:53;1.40;;;1.30;;
16099;SDS011;8154;50.830;12.082;2022-10-04T15:57:14;1.30;;;1.20;;
16099;SDS011;8154;50.830;12.082;2022-10-04T16:00:19;1.20;;;1.20;;
16099;SDS011;8154;50.830;12.082;2022-10-04T16:06:16;1.30;;;1.20;;
16099;SDS011;8154;50.830;12.082;2022-10-04T16:09:17;1.50;;;1.40;;
16099;SDS011;8154;50.830;12.082;2022-10-04T16:12:27;1.38;;;1.27;;
16099;SDS011;8154;50.830;12.082;2022-10-04T16:15:19;1.20;;;1.20;;
16099;SDS011;8154;50.830;12.082;2022-10-04T16:27:26;1.30;;;1.20;;
16099;SDS011;8154;50.830;12.082;2022-10-04T16:33:23;1.23;;;1.20;;
16099;SDS011;8154;50.830;12.082;2022-10-04T16:36:15;1.33;;;1.23;;
16099;SDS011;8154;50.830;12.082;2022-10-04T16:39:04;1.20;;;1.20;;
16099;SDS011;8154;50.830;12.082;2022-10-04T16:42:12;1.40;;;1.30;;
16099;SDS011;8154;50.830;12.082;2022-10-04T16:47:51;1.35;;;1.25;;
16099;SDS011;8154;50.830;12.082;2022-10-04T16:59:59;1.30;;;1.20;;
16099;SDS011;8154;50.830;12.082;2022-10-04T17:03:18;1.20;;;1.13;;
16099;SDS011;8154;50.830;12.082;2022-10-04T17:06:12;1.30;;;1.20;;
16099;SDS011;8154;50.830;12.082;2022-10-04T17:09:16;1.10;;;1.10;;
16099;SDS011;8154;50.830;12.082;2022-10-04T17:12:16;1.30;;;1.20;;
16099;SDS011;8154;50.830;12.082;2022-10-04T17:21:39;1.30;;;1.20;;
16099;SDS011;8154;50.830;12.082;2022-10-04T17:27:49;1.40;;;1.30;;
16099;SDS011;8154;50.830;12.082;2022-10-04T17:30:47;1.20;;;1.20;;
16099;SDS011;8154;50.830;12.082;2022-10-04T17:40:43;1.30;;;1.20;;
16099;SDS011;8154;50.830;12.082;2022-10-04T17:53:11;1.40;;;1.30;;
16099;SDS011;8154;50.830;12.082;2022-10-04T17:57:08;1.10;;;1.10;;
16099;SDS011;8154;50.830;12.082;2022-10-04T17:59:54;1.17;;;1.17;;
16099;SDS011;8154;50.830;12.082;2022-10-04T18:06:10;1.20;;;1.20;;
16099;SDS011;8154;50.830;12.082;2022-10-04T18:08:57;1.10;;;1.10;;
16099;SDS011;8154;50.830;12.082;2022-10-04T18:12:00;1.20;;;1.20;;
16099;SDS011;8154;50.830;12.082;2022-10-04T18:17:49;1.10;;;1.10;;
16099;SDS011;8154;50.830;12.082;2022-10-04T18:20:35;1.30;;;1.20;;
16099;SDS011;8154;50.830;12.082;2022-10-04T18:23:27;1.10;;;1.10;;
16099;SDS011;8154;50.830;12.082;2022-10-04T18:26:13;1.20;;;1.20;;
16099;SDS011;8154;50.830;12.082;2022-10-04T18:29:00;1.30;;;1.20;;
16099;SDS011;8154;50.830;12.082;2022-10-04T18:31:46;1.40;;;1.30;;
16099;SDS011;8154;50.830;12.082;2022-10-04T18:34:31;1.30;;;1.20;;
16099;SDS011;8154;50.830;12.082;2022-10-04T18:37:19;1.10;;;1.10;;
16099;SDS011;8154;50.830;12.082;2022-10-04T18:43:07;1.00;;;1.00;;
16099;SDS011;8154;50.830;12.082;2022-10-04T18:49:14;1.20;;;1.20;;
16099;SDS011;8154;50.830;12.082;2022-10-04T18:58:05;1.17;;;1.17;;
16099;SDS011;8154;50.830;12.082;2022-10-04T19:11:07;1.17;;;1.10;;
16099;SDS011;8154;50.830;12.082;2022-10-04T19:20:04;1.20;;;1.20;;
16099;SDS011;8154;50.830;12.082;2022-10-04T19:23:10;1.30;;;1.20;;
16099;SDS011;8154;50.830;12.082;2022-10-04T19:29:36;1.40;;;1.30;;
16099;SDS011;8154;50.830;12.082;2022-10-04T19:32:46;1.15;;;1.08;;
16099;SDS011;8154;50.830;12.082;2022-10-04T19:39:02;1.38;;;1.27;;
16099;SDS011;8154;50.830;12.082;2022-10-04T19:42:12;1.08;;;1.08;;
16099;SDS011;8154;50.830;12.082;2022-10-04T19:45:04;1.20;;;1.20;;
16099;SDS011;8154;50.830;12.082;2022-10-04T19:48:23;1.33;;;1.20;;
16099;SDS011;8154;50.830;12.082;2022-10-04T19:51:11;1.05;;;1.05;;
16099;SDS011;8154;50.830;12.082;2022-10-04T19:54:09;1.48;;;1.38;;
16099;SDS011;8154;50.830;12.082;2022-10-04T19:56:56;1.10;;;1.10;;
16099;SDS011;8154;50.830;12.082;2022-10-04T19:59:45;1.20;;;1.13;;
16099;SDS011;8154;50.830;12.082;2022-10-04T20:02:31;1.15;;;1.10;;
16099;SDS011;8154;50.830;12.082;2022-10-04T20:05:16;1.10;;;1.10;;
16099;SDS011;8154;50.830;12.082;2022-10-04T20:08:08;1.00;;;1.00;;
16099;SDS011;8154;50.830;12.082;2022-10-04T20:11:09;1.10;;;1.10;;
16099;SDS011;8154;50.830;12.082;2022-10-04T20:19:39;1.30;;;1.20;;
16099;SDS011;8154;50.830;12.082;2022-10-04T20:25:09;1.27;;;1.20;;
16099;SDS011;8154;50.830;12.082;2022-10-04T20:30:51;1.17;;;1.13;;
16099;SDS011;8154;50.830;12.082;2022-10-04T20:33:46;1.13;;;1.13;;
16099;SDS011;8154;50.830;12.082;2022-10-04T20:47:57;1.15;;;1.15;;
16099;SDS011;8154;50.830;12.082;2022-10-04T20:50:42;1.10;;;1.10;;
16099;SDS011;8154;50.830;12.082;2022-10-04T20:53:32;1.10;;;1.10;;
16099;SDS011;8154;50.830;12.082;2022-10-04T20:56:30;1.30;;;1.20;;
16099;SDS011;8154;50.830;12.082;2022-10-04T20:59:16;1.17;;;1.10;;
16099;SDS011;8154;50.830;12.082;2022-10-04T21:02:01;1.05;;;1.05;;
16099;SDS011;8154;50.830;12.082;2022-10-04T21:04:51;1.20;;;1.10;;
16099;SDS011;8154;50.830;12.082;2022-10-04T21:07:36;1.40;;;1.30;;
16099;SDS011;8154;50.830;12.082;2022-10-04T21:10:20;1.27;;;1.17;;
16099;SDS011;8154;50.830;12.082;2022-10-04T21:13:04;1.40;;;1.30;;
16099;SDS011;8154;50.830;12.082;2022-10-04T21:15:55;1.23;;;1.13;;
16099;SDS011;8154;50.830;12.082;2022-10-04T21:18:40;1.30;;;1.20;;
16099;SDS011;8154;50.830;12.082;2022-10-04T21:27:24;1.30;;;1.20;;
16099;SDS011;8154;50.830;12.082;2022-10-04T21:30:16;1.27;;;1.20;;
16099;SDS011;8154;50.830;12.082;2022-10-04T21:33:05;1.20;;;1.17;;
16099;SDS011;8154;50.830;12.082;2022-10-04T21:35:49;1.25;;;1.25;;
16099;SDS011;8154;50.830;12.082;2022-10-04T21:38:35;1.10;;;1.10;;
16099;SDS011;8154;50.830;12.082;2022-10-04T21:41:19;1.13;;;1.13;;
16099;SDS011;8154;50.830;12.082;2022-10-04T21:44:03;1.20;;;1.10;;
16099;SDS011;8154;50.830;12.082;2022-10-04T21:46:47;1.27;;;1.17;;
16099;SDS011;8154;50.830;12.082;2022-10-04T21:49:32;1.10;;;1.10;;
16099;SDS011;8154;50.830;12.082;2022-10-04T21:52:16;1.05;;;1.05;;
16099;SDS011;8154;50.830;12.082;2022-10-04T21:55:01;1.10;;;1.10;;
16099;SDS011;8154;50.830;12.082;2022-10-04T21:57:46;1.30;;;1.20;;
16099;SDS011;8154;50.830;12.082;2022-10-04T22:00:30;1.00;;;1.00;;
16099;SDS011;8154;50.830;12.082;2022-10-04T22:03:15;1.20;;;1.10;;
16099;SDS011;8154;50.830;12.082;2022-10-04T22:05:59;1.10;;;1.10;;
16099;SDS011;8154;50.830;12.082;2022-10-04T22:08:44;1.10;;;1.10;;
16099;SDS011;8154;50.830;12.082;2022-10-04T22:11:29;1.10;;;1.10;;
16099;SDS011;8154;50.830;12.082;2022-10-04T22:14:13;1.40;;;1.30;;
16099;SDS011;8154;50.830;12.082;2022-10-04T22:16:58;1.30;;;1.20;;
16099;SDS011;8154;50.830;12.082;2022-10-04T22:19:42;1.30;;;1.20;;
16099;SDS011;8154;50.830;12.082;2022-10-04T22:22:29;1.13;;;1.13;;
16099;SDS011;8154;50.830;12.082;2022-10-04T22:25:16;1.10;;;1.10;;
16099;SDS011;8154;50.830;12.082;2022-10-04T22:28:10;1.30;;;1.20;;
16099;SDS011;8154;50.830;12.082;2022-10-04T22:31:00;1.40;;;1.30;;
16099;SDS011;8154;50.830;12.082;2022-10-04T22:33:46;1.10;;;1.10;;
16099;SDS011;8154;50.830;12.082;2022-10-04T22:36:37;1.10;;;1.10;;
16099;SDS011;8154;50.830;12.082;2022-10-04T22:39:23;1.23;;;1.13;;
16099;SDS011;8154;50.830;12.082;2022-10-04T22:42:09;1.05;;;1.05;;
16099;SDS011;8154;50.830;12.082;2022-10-04T22:44:57;1.10;;;1.10;;
16099;SDS011;8154;50.830;12.082;2022-10-04T22:47:44;1.17;;;1.17;;
16099;SDS011;8154;50.830;12.082;2022-10-04T22:50:32;1.02;;;1.02;;
16099;SDS011;8154;50.830;12.082;2022-10-04T22:53:19;1.17;;;1.08;;
16099;SDS011;8154;50.830;12.082;2022-10-04T22:56:04;1.20;;;1.10;;
16099;SDS011;8154;50.830;12.082;2022-10-04T22:58:49;1.40;;;1.30;;
16099;SDS011;8154;50.830;12.082;2022-10-04T23:01:33;1.13;;;1.13;;
16099;SDS011;8154;50.830;12.082;2022-10-04T23:04:20;1.10;;;1.10;;
16099;SDS011;8154;50.830;12.082;2022-10-04T23:07:06;1.10;;;1.10;;
16099;SDS011;8154;50.830;12.082;2022-10-04T23:09:50;1.10;;;1.10;;
16099;SDS011;8154;50.830;12.082;2022-10-04T23:12:35;1.20;;;1.20;;
16099;SDS011;8154;50.830;12.082;2022-10-04T23:15:19;1.10;;;1.10;;
16099;SDS011;8154;50.830;12.082;2022-10-04T23:18:11;1.10;;;1.10;;
16099;SDS011;8154;50.830;12.082;2022-10-04T23:20:58;1.13;;;1.02;;
16099;SDS011;8154;50.830;12.082;2022-10-04T23:23:44;1.08;;;1.08;;
16099;SDS011;8154;50.830;12.082;2022-10-04T23:26:48;1.30;;;1.20;;
16099;SDS011;8154;50.830;12.082;2022-10-04T23:29:38;1.10;;;1.10;;
16099;SDS011;8154;50.830;12.082;2022-10-04T23:32:23;1.30;;;1.20;;
16099;SDS011;8154;50.830;12.082;2022-10-04T23:35:12;1.27;;;1.20;;
16099;SDS011;8154;50.830;12.082;2022-10-04T23:38:00;1.00;;;1.00;;
16099;SDS011;8154;50.830;12.082;2022-10-04T23:40:50;1.20;;;1.10;;
16099;SDS011;8154;50.830;12.082;2022-10-04T23:43:35;1.17;;;1.10;;
16099;SDS011;8154;50.830;12.082;2022-10-04T23:46:21;1.10;;;1.10;;
16099;SDS011;8154;50.830;12.082;2022-10-04T23:49:10;1.10;;;1.10;;
16099;SDS011;8154;50.830;12.082;2022-10-04T23:52:00;1.00;;;1.00;;
16099;SDS011;8154;50.830;12.082;2022-10-04T23:54:47;1.10;;;1.10;;
16099;SDS011;8154;50.830;12.082;2022-10-04T23:57:33;1.10;;;1.10;;
